- বাংলা English

 * * Phone: +880 29135742, 9123838, 9141437 | FAX: +880 2 8118230, 58152019*   

METAR

VGHS 211200Z 28004KT 2000 HZ NSC 22/14 Q1011 NOSIG=

Download Full Screen